createdAt,value
2018-06-08T00:00:31.212Z,62.63
2018-06-08T00:01:30.489Z,62.65
2018-06-08T00:02:30.418Z,62.59
2018-06-08T00:03:30.748Z,62.64
2018-06-08T00:04:30.338Z,62.6
2018-06-08T00:05:30.342Z,62.57
2018-06-08T00:06:30.315Z,62.61
2018-06-08T00:07:30.612Z,62.66
2018-06-08T00:08:30.469Z,62.6
2018-06-08T00:09:31.411Z,62.65
2018-06-08T00:10:30.623Z,62.67
2018-06-08T00:11:30.364Z,62.59
2018-06-08T00:12:30.381Z,62.63
2018-06-08T00:13:30.559Z,62.61
2018-06-08T00:14:30.686Z,62.62
2018-06-08T00:15:30.516Z,62.63
2018-06-08T00:16:30.480Z,62.63
2018-06-08T00:17:30.527Z,62.6
2018-06-08T00:18:30.480Z,62.62
2018-06-08T00:19:30.526Z,62.65
2018-06-08T00:20:30.503Z,62.63
2018-06-08T00:21:30.525Z,62.63
2018-06-08T00:22:30.514Z,62.62
2018-06-08T00:23:30.354Z,62.67
2018-06-08T00:24:30.347Z,62.65
2018-06-08T00:25:30.301Z,62.64
2018-06-08T00:26:40.393Z,62.64
2018-06-08T00:27:30.447Z,62.67
2018-06-08T00:28:30.471Z,62.69
2018-06-08T00:29:30.467Z,62.65
2018-06-08T00:30:30.577Z,62.64
2018-06-08T00:31:30.385Z,62.63
2018-06-08T00:32:30.527Z,62.69
2018-06-08T00:33:30.424Z,62.62
2018-06-08T00:34:30.379Z,62.64
2018-06-08T00:35:30.278Z,62.63
2018-06-08T00:36:30.393Z,62.62
2018-06-08T00:37:30.517Z,62.67
2018-06-08T00:38:30.443Z,62.67
2018-06-08T00:39:30.438Z,62.63
2018-06-08T00:40:30.347Z,62.69
2018-06-08T00:41:30.437Z,62.71
2018-06-08T00:42:30.442Z,62.65
2018-06-08T00:43:30.627Z,62.69
2018-06-08T00:44:30.499Z,62.65
2018-06-08T00:45:30.644Z,62.67
2018-06-08T00:46:30.371Z,62.72
2018-06-08T00:47:30.330Z,62.67
2018-06-08T00:48:30.592Z,62.64
2018-06-08T00:49:30.440Z,62.63
2018-06-08T00:50:30.519Z,62.63
2018-06-08T00:51:30.362Z,62.67
2018-06-08T00:52:30.520Z,62.69
2018-06-08T00:53:30.773Z,62.7
2018-06-08T00:54:30.380Z,62.69
2018-06-08T00:55:30.543Z,62.66
2018-06-08T00:56:30.566Z,62.64
2018-06-08T00:57:30.547Z,62.69
2018-06-08T00:58:30.546Z,62.65
2018-06-08T00:59:30.463Z,62.67
2018-06-08T01:00:30.346Z,62.69
2018-06-08T01:01:30.846Z,62.67
2018-06-08T01:02:30.521Z,62.69
2018-06-08T01:03:30.479Z,62.64
2018-06-08T01:04:30.369Z,62.67
2018-06-08T01:05:30.548Z,62.7
2018-06-08T01:06:30.599Z,62.63
2018-06-08T01:07:30.511Z,62.67
2018-06-08T01:08:30.261Z,62.69
2018-06-08T01:09:40.463Z,62.69
2018-06-08T01:10:30.452Z,62.68
2018-06-08T01:11:30.520Z,62.68
2018-06-08T01:12:30.332Z,62.69
2018-06-08T01:13:30.629Z,62.68
2018-06-08T01:14:30.292Z,62.68
2018-06-08T01:15:30.406Z,62.68
2018-06-08T01:16:30.516Z,62.71
2018-06-08T01:17:30.316Z,62.76
2018-06-08T01:18:30.339Z,62.74
2018-06-08T01:19:30.498Z,62.66
2018-06-08T01:20:30.376Z,62.67
2018-06-08T01:21:30.375Z,62.69
2018-06-08T01:22:30.669Z,62.7
2018-06-08T01:23:30.340Z,62.67
2018-06-08T01:24:30.424Z,62.68
2018-06-08T01:25:30.494Z,62.72
2018-06-08T01:26:30.479Z,62.72
2018-06-08T01:27:30.518Z,62.71
2018-06-08T01:28:30.585Z,62.75
2018-06-08T01:29:30.559Z,62.74
2018-06-08T01:30:30.572Z,62.7
2018-06-08T01:31:30.231Z,62.75
2018-06-08T01:32:30.393Z,62.77
2018-06-08T01:33:30.330Z,62.76
2018-06-08T01:34:30.289Z,62.7
2018-06-08T01:35:30.588Z,62.73
2018-06-08T01:36:30.398Z,62.7
2018-06-08T01:37:30.476Z,62.71
2018-06-08T01:38:30.572Z,62.71
2018-06-08T01:39:30.380Z,62.68
2018-06-08T01:40:30.412Z,62.7
2018-06-08T01:41:30.413Z,62.68
2018-06-08T01:42:30.418Z,62.73
2018-06-08T01:43:30.366Z,62.73
2018-06-08T01:44:30.408Z,62.74
2018-06-08T01:45:30.456Z,62.75
2018-06-08T01:46:30.356Z,62.7
2018-06-08T01:47:30.329Z,62.71
2018-06-08T01:48:30.413Z,62.72
2018-06-08T01:49:30.391Z,62.71
2018-06-08T01:50:30.450Z,62.75
2018-06-08T01:51:30.352Z,62.75
2018-06-08T01:52:40.383Z,62.74
2018-06-08T01:53:30.361Z,62.74
2018-06-08T01:54:30.357Z,62.69
2018-06-08T01:55:30.650Z,62.77
2018-06-08T01:56:30.541Z,62.75
2018-06-08T01:57:30.315Z,62.72
2018-06-08T01:58:30.452Z,62.81
2018-06-08T01:59:30.332Z,62.81
2018-06-08T02:00:30.402Z,62.72
2018-06-08T02:01:30.425Z,62.73
2018-06-08T02:02:30.423Z,62.72
2018-06-08T02:03:30.714Z,62.72
2018-06-08T02:04:30.384Z,62.76
2018-06-08T02:05:30.388Z,62.75
2018-06-08T02:06:30.317Z,62.75
2018-06-08T02:07:30.623Z,62.77
2018-06-08T02:08:30.563Z,62.75
2018-06-08T02:09:30.635Z,62.78
2018-06-08T02:10:30.446Z,62.77
2018-06-08T02:11:30.558Z,62.78
2018-06-08T02:12:30.375Z,62.8
2018-06-08T02:13:30.580Z,62.75
2018-06-08T02:14:30.561Z,62.76
2018-06-08T02:15:30.238Z,62.78
2018-06-08T02:16:30.606Z,62.77
2018-06-08T02:17:30.624Z,62.74
2018-06-08T02:18:30.418Z,62.77
2018-06-08T02:19:30.441Z,62.83
2018-06-08T02:20:30.479Z,62.78
2018-06-08T02:21:30.497Z,62.74
2018-06-08T02:22:30.478Z,62.77
2018-06-08T02:23:30.419Z,62.74
2018-06-08T02:24:30.327Z,62.78
2018-06-08T02:25:30.401Z,62.83
2018-06-08T02:26:30.352Z,62.78
2018-06-08T02:27:30.528Z,62.76
2018-06-08T02:28:30.438Z,62.77
2018-06-08T02:29:30.442Z,62.82
2018-06-08T02:30:30.503Z,62.77
2018-06-08T02:31:30.600Z,62.8
2018-06-08T02:32:30.450Z,62.73
2018-06-08T02:33:30.344Z,62.72
2018-06-08T02:34:30.646Z,62.76
2018-06-08T02:35:30.340Z,62.75
2018-06-08T02:36:30.368Z,62.76
2018-06-08T02:37:30.327Z,62.84
2018-06-08T02:38:30.435Z,62.8
2018-06-08T02:39:30.263Z,62.75
2018-06-08T02:40:30.394Z,62.77
2018-06-08T02:41:30.407Z,62.76
2018-06-08T02:42:30.671Z,62.8
2018-06-08T02:43:30.471Z,62.87
2018-06-08T02:44:30.410Z,62.85
2018-06-08T02:45:30.460Z,62.77
2018-06-08T02:46:30.700Z,62.81
2018-06-08T02:47:30.436Z,62.77
2018-06-08T02:48:30.314Z,62.75
2018-06-08T02:49:30.542Z,62.84
2018-06-08T02:50:30.423Z,62.84
2018-06-08T02:51:30.354Z,62.81
2018-06-08T02:52:30.506Z,62.77
2018-06-08T02:53:30.424Z,62.82
2018-06-08T02:54:30.539Z,62.83
2018-06-08T02:55:30.464Z,62.86
2018-06-08T02:56:30.508Z,62.82
2018-06-08T02:57:30.563Z,62.79
2018-06-08T02:58:30.586Z,62.78
2018-06-08T02:59:30.432Z,62.78
2018-06-08T03:00:30.557Z,62.75
2018-06-08T03:01:30.429Z,62.79
2018-06-08T03:02:30.505Z,62.86
2018-06-08T03:03:30.489Z,62.86
2018-06-08T03:04:30.559Z,62.82
2018-06-08T03:05:30.505Z,62.78
2018-06-08T03:06:30.223Z,62.77
2018-06-08T03:07:30.537Z,62.8
2018-06-08T03:08:30.599Z,62.83
2018-06-08T03:09:30.388Z,62.8
2018-06-08T03:10:30.806Z,62.85
2018-06-08T03:11:30.492Z,62.81
2018-06-08T03:12:30.494Z,62.77
2018-06-08T03:13:30.640Z,62.77
2018-06-08T03:14:30.379Z,62.78
2018-06-08T03:15:30.461Z,62.84
2018-06-08T03:16:30.464Z,62.83
2018-06-08T03:17:40.394Z,62.79
2018-06-08T03:18:30.432Z,62.84
2018-06-08T03:19:30.343Z,62.83
2018-06-08T03:20:30.385Z,62.85
2018-06-08T03:21:30.371Z,62.8
2018-06-08T03:22:30.337Z,62.84
2018-06-08T03:23:30.607Z,62.91
2018-06-08T03:24:30.823Z,62.83
2018-06-08T03:25:30.497Z,62.82
2018-06-08T03:26:30.405Z,62.8
2018-06-08T03:27:30.644Z,62.8
2018-06-08T03:28:30.360Z,62.86
2018-06-08T03:29:30.328Z,62.85
2018-06-08T03:30:30.508Z,62.88
2018-06-08T03:31:30.273Z,62.89
2018-06-08T03:32:30.488Z,62.87
2018-06-08T03:33:30.449Z,62.8
2018-06-08T03:34:30.494Z,62.79
2018-06-08T03:35:30.518Z,62.8
2018-06-08T03:36:30.532Z,62.85
2018-06-08T03:37:30.254Z,62.9
2018-06-08T03:38:30.479Z,62.83
2018-06-08T03:39:30.490Z,62.88
2018-06-08T03:40:30.296Z,62.9
2018-06-08T03:41:30.422Z,62.89
2018-06-08T03:42:30.388Z,62.87
2018-06-08T03:43:30.504Z,62.85
2018-06-08T03:44:30.435Z,62.82
2018-06-08T03:45:30.468Z,62.81
2018-06-08T03:46:30.487Z,62.83
2018-06-08T03:47:30.582Z,62.8
2018-06-08T03:48:30.640Z,62.84
2018-06-08T03:49:30.661Z,62.85
2018-06-08T03:50:30.393Z,62.81
2018-06-08T03:51:40.353Z,62.84
2018-06-08T03:52:30.285Z,62.88
2018-06-08T03:53:30.301Z,62.84
2018-06-08T03:54:30.702Z,62.83
2018-06-08T03:55:30.346Z,62.87
2018-06-08T03:56:30.300Z,62.83
2018-06-08T03:57:30.473Z,62.89
2018-06-08T03:58:30.240Z,62.82
2018-06-08T03:59:30.558Z,62.81
2018-06-08T04:00:30.321Z,62.87
2018-06-08T04:01:30.545Z,62.84
2018-06-08T04:02:31.270Z,62.85
2018-06-08T04:03:30.355Z,62.78
2018-06-08T04:04:30.458Z,62.8
2018-06-08T04:05:30.305Z,62.82
2018-06-08T04:06:30.416Z,62.8
2018-06-08T04:07:30.345Z,62.8
2018-06-08T04:08:30.415Z,62.84
2018-06-08T04:09:30.394Z,62.84
2018-06-08T04:10:30.369Z,62.83
2018-06-08T04:11:30.389Z,62.84
2018-06-08T04:12:30.746Z,62.84
2018-06-08T04:13:30.448Z,62.8
2018-06-08T04:14:30.307Z,62.82
2018-06-08T04:15:30.363Z,62.85
2018-06-08T04:16:30.316Z,62.77
2018-06-08T04:17:30.512Z,62.83
2018-06-08T04:18:30.326Z,62.8
2018-06-08T04:19:30.331Z,62.8
2018-06-08T04:20:30.462Z,62.82
2018-06-08T04:21:30.282Z,62.81
2018-06-08T04:22:30.455Z,62.82
2018-06-08T04:23:30.500Z,62.83
2018-06-08T04:24:30.466Z,62.84
2018-06-08T04:25:30.307Z,62.78
2018-06-08T04:26:30.443Z,62.8
2018-06-08T04:27:30.282Z,62.8
2018-06-08T04:28:30.413Z,62.84
2018-06-08T04:29:30.396Z,62.78
2018-06-08T04:30:30.517Z,62.82
2018-06-08T04:31:30.553Z,62.75
2018-06-08T04:32:30.454Z,62.75
2018-06-08T04:33:30.517Z,62.81
2018-06-08T04:34:30.474Z,62.81
2018-06-08T04:35:30.496Z,62.8
2018-06-08T04:36:30.275Z,62.77
2018-06-08T04:37:30.530Z,62.82
2018-06-08T04:38:30.344Z,62.79
2018-06-08T04:39:30.352Z,62.84
2018-06-08T04:40:30.978Z,62.79
2018-06-08T04:41:30.402Z,62.84
2018-06-08T04:42:30.433Z,62.76
2018-06-08T04:43:30.302Z,62.79
2018-06-08T04:44:30.299Z,62.75
2018-06-08T04:45:30.357Z,62.77
2018-06-08T04:46:30.521Z,62.79
2018-06-08T04:47:30.329Z,62.8
2018-06-08T04:48:30.466Z,62.78
2018-06-08T04:49:30.264Z,62.82
2018-06-08T04:50:30.445Z,62.75
2018-06-08T04:51:30.579Z,62.76
2018-06-08T04:52:30.457Z,62.8
2018-06-08T04:53:30.498Z,62.76
2018-06-08T04:54:30.357Z,62.8
2018-06-08T04:55:30.764Z,62.82
2018-06-08T04:56:30.445Z,62.87
2018-06-08T04:57:30.329Z,62.77
2018-06-08T04:58:30.290Z,62.8
2018-06-08T04:59:30.335Z,62.84
2018-06-08T05:00:30.353Z,62.78
2018-06-08T05:01:30.506Z,62.8
2018-06-08T05:02:30.483Z,62.77
2018-06-08T05:03:30.413Z,62.8
2018-06-08T05:04:30.360Z,62.77
2018-06-08T05:05:30.415Z,62.78
2018-06-08T05:06:30.505Z,62.78
2018-06-08T05:07:30.556Z,62.75
2018-06-08T05:08:30.439Z,62.84
2018-06-08T05:09:30.261Z,62.82
2018-06-08T05:10:30.338Z,62.77
2018-06-08T05:11:30.457Z,62.83
2018-06-08T05:12:30.391Z,62.78
2018-06-08T05:13:30.299Z,62.8
2018-06-08T05:14:30.331Z,62.75
2018-06-08T05:15:30.337Z,62.77
2018-06-08T05:16:30.277Z,62.75
2018-06-08T05:17:30.278Z,62.78
2018-06-08T05:18:30.265Z,62.78
2018-06-08T05:19:30.334Z,62.81
2018-06-08T05:20:30.599Z,62.73
2018-06-08T05:21:30.349Z,62.78
2018-06-08T05:22:30.469Z,62.75
2018-06-08T05:23:30.401Z,62.82
2018-06-08T05:24:30.500Z,62.81
2018-06-08T05:25:30.399Z,62.82
2018-06-08T05:26:30.428Z,62.82
2018-06-08T05:27:30.259Z,62.76
2018-06-08T05:28:30.381Z,62.78
2018-06-08T05:29:30.244Z,62.75
2018-06-08T05:30:30.334Z,62.82
2018-06-08T05:31:30.489Z,62.77
2018-06-08T05:32:30.587Z,62.82
2018-06-08T05:33:30.333Z,62.78
2018-06-08T05:34:30.422Z,62.76
2018-06-08T05:35:30.295Z,62.82
2018-06-08T05:36:30.451Z,62.73
2018-06-08T05:37:30.520Z,62.75
2018-06-08T05:38:30.507Z,62.78
2018-06-08T05:39:30.616Z,62.78
2018-06-08T05:40:30.169Z,62.78
2018-06-08T05:41:30.340Z,62.76
2018-06-08T05:42:30.561Z,62.77
2018-06-08T05:43:30.260Z,62.84
2018-06-08T05:44:30.523Z,62.74
2018-06-08T05:45:30.454Z,62.78
2018-06-08T05:46:30.510Z,62.77
2018-06-08T05:47:30.435Z,62.77
2018-06-08T05:48:30.694Z,62.76
2018-06-08T05:49:30.257Z,62.79
2018-06-08T05:50:30.347Z,62.81
2018-06-08T05:51:30.517Z,62.78
2018-06-08T05:52:30.291Z,62.75
2018-06-08T05:53:30.346Z,62.78
2018-06-08T05:54:30.252Z,62.77
2018-06-08T05:55:30.313Z,62.8
2018-06-08T05:56:30.401Z,62.84
2018-06-08T05:57:30.241Z,62.84
2018-06-08T05:58:30.474Z,62.81
2018-06-08T05:59:30.287Z,62.77
2018-06-08T06:00:30.495Z,62.81
2018-06-08T06:01:30.440Z,62.79
2018-06-08T06:02:30.611Z,62.75
2018-06-08T06:03:30.397Z,62.78
2018-06-08T06:04:30.458Z,62.78
2018-06-08T06:05:30.664Z,62.8
2018-06-08T06:06:30.416Z,62.8
2018-06-08T06:07:30.421Z,62.8
2018-06-08T06:08:30.434Z,62.84
2018-06-08T06:09:30.414Z,62.8
2018-06-08T06:10:30.402Z,62.81
2018-06-08T06:11:30.275Z,62.77
2018-06-08T06:12:30.475Z,62.8
2018-06-08T06:13:30.315Z,62.81
2018-06-08T06:14:30.343Z,62.78
2018-06-08T06:15:30.454Z,62.8
2018-06-08T06:16:30.311Z,62.83
2018-06-08T06:17:30.644Z,62.78
2018-06-08T06:18:30.606Z,62.78
2018-06-08T06:19:30.381Z,62.84
2018-06-08T06:20:40.394Z,62.81
2018-06-08T06:21:30.547Z,62.77
2018-06-08T06:22:30.357Z,62.8
2018-06-08T06:23:30.323Z,62.81
2018-06-08T06:24:30.328Z,62.78
2018-06-08T06:25:30.211Z,62.8
2018-06-08T06:26:30.363Z,62.83
2018-06-08T06:27:31.081Z,62.84
2018-06-08T06:28:30.489Z,62.81
2018-06-08T06:29:30.767Z,62.89
2018-06-08T06:30:30.253Z,62.83
2018-06-08T06:31:30.296Z,62.81
2018-06-08T06:32:30.488Z,62.77
2018-06-08T06:33:30.259Z,62.77
2018-06-08T06:34:30.310Z,62.77
2018-06-08T06:35:30.340Z,62.8
2018-06-08T06:36:30.370Z,62.79
2018-06-08T06:37:30.525Z,62.8
2018-06-08T06:38:30.335Z,62.81
2018-06-08T06:39:30.403Z,62.78
2018-06-08T06:40:30.492Z,62.8
2018-06-08T06:41:30.415Z,62.77
2018-06-08T06:42:30.414Z,62.78
2018-06-08T06:43:30.298Z,62.83
2018-06-08T06:44:30.352Z,62.79
2018-06-08T06:45:30.296Z,62.75
2018-06-08T06:46:30.202Z,62.8
2018-06-08T06:47:30.473Z,62.79
2018-06-08T06:48:30.342Z,62.8
2018-06-08T06:49:30.388Z,62.77
2018-06-08T06:50:30.528Z,62.76
2018-06-08T06:51:30.353Z,62.77
2018-06-08T06:52:30.335Z,62.8
2018-06-08T06:53:30.290Z,62.79
2018-06-08T06:54:30.356Z,62.77
2018-06-08T06:55:30.353Z,62.81
2018-06-08T06:56:30.347Z,62.79
2018-06-08T06:57:30.260Z,62.78
2018-06-08T06:58:30.288Z,62.79
2018-06-08T06:59:30.439Z,62.79
2018-06-08T07:00:30.461Z,62.75
2018-06-08T07:01:30.389Z,62.74
2018-06-08T07:02:30.509Z,62.75
2018-06-08T07:03:30.232Z,62.77
2018-06-08T07:04:31.093Z,62.77
2018-06-08T07:05:30.641Z,62.75
2018-06-08T07:06:30.629Z,62.75
2018-06-08T07:07:30.377Z,62.76
2018-06-08T07:08:30.502Z,62.74
2018-06-08T07:09:30.447Z,62.75
2018-06-08T07:10:30.334Z,62.75
2018-06-08T07:11:30.231Z,62.75
2018-06-08T07:12:30.231Z,62.73
2018-06-08T07:13:30.397Z,62.76
2018-06-08T07:14:30.405Z,62.73
2018-06-08T07:15:30.251Z,62.72
2018-06-08T07:16:30.382Z,62.72
2018-06-08T07:17:30.238Z,62.73
2018-06-08T07:18:30.396Z,62.75
2018-06-08T07:19:30.379Z,62.73
2018-06-08T07:20:30.434Z,62.71
2018-06-08T07:21:30.139Z,62.72
2018-06-08T07:22:30.202Z,62.76
2018-06-08T07:23:30.693Z,62.7
2018-06-08T07:24:30.415Z,62.73
2018-06-08T07:25:30.399Z,62.71
2018-06-08T07:26:30.329Z,62.77
2018-06-08T07:27:30.384Z,62.72
2018-06-08T07:28:30.390Z,62.73
2018-06-08T07:29:30.450Z,62.72
2018-06-08T07:30:30.459Z,62.76
2018-06-08T07:31:31.100Z,62.76
2018-06-08T07:32:30.162Z,62.93
2018-06-08T07:33:30.418Z,62.79
2018-06-08T07:34:30.294Z,62.94
2018-06-08T07:35:30.442Z,63.2
2018-06-08T07:36:30.320Z,62.87
2018-06-08T07:37:30.496Z,62.94
2018-06-08T07:38:30.312Z,62.94
2018-06-08T07:39:30.325Z,63
2018-06-08T07:40:30.294Z,63.02
2018-06-08T07:41:30.217Z,62.88
2018-06-08T07:42:30.471Z,62.94
2018-06-08T07:43:30.465Z,62.93
2018-06-08T07:44:30.329Z,62.86
2018-06-08T07:45:30.304Z,62.77
2018-06-08T07:46:30.223Z,62.84
2018-06-08T07:47:30.465Z,62.75
2018-06-08T07:48:30.407Z,62.8
2018-06-08T07:49:30.525Z,62.8
2018-06-08T07:50:30.235Z,62.81
2018-06-08T07:51:30.475Z,62.81
2018-06-08T07:52:30.403Z,62.75
2018-06-08T07:53:30.431Z,62.81
2018-06-08T07:54:30.504Z,62.77
2018-06-08T07:55:30.425Z,62.78
2018-06-08T07:56:30.451Z,62.76
2018-06-08T07:57:30.358Z,62.8
2018-06-08T07:58:30.264Z,62.75
2018-06-08T07:59:30.192Z,62.75
2018-06-08T08:00:30.301Z,62.74
2018-06-08T08:01:30.463Z,62.74
2018-06-08T08:02:30.372Z,62.73
2018-06-08T08:03:30.460Z,62.74
2018-06-08T08:04:30.300Z,62.72
2018-06-08T08:05:30.335Z,62.73
2018-06-08T08:06:30.545Z,62.71
2018-06-08T08:07:30.343Z,62.66
2018-06-08T08:08:30.390Z,62.69
2018-06-08T08:09:30.307Z,62.73
2018-06-08T08:10:30.246Z,62.67
2018-06-08T08:11:30.394Z,62.67
2018-06-08T08:12:30.461Z,62.68
2018-06-08T08:13:30.405Z,62.75
2018-06-08T08:14:30.612Z,62.67
2018-06-08T08:15:30.466Z,62.7
2018-06-08T08:16:30.722Z,62.66
2018-06-08T08:17:30.400Z,62.66
2018-06-08T08:18:30.637Z,62.65
2018-06-08T08:19:30.329Z,62.66
2018-06-08T08:20:30.238Z,62.68
2018-06-08T08:21:30.675Z,62.69
2018-06-08T08:22:30.585Z,62.64
2018-06-08T08:23:30.799Z,62.67
2018-06-08T08:24:30.871Z,62.67
2018-06-08T08:25:30.314Z,62.65
2018-06-08T08:26:30.586Z,62.68
2018-06-08T08:27:30.219Z,62.67
2018-06-08T08:28:30.469Z,62.66
2018-06-08T08:29:30.558Z,62.7
2018-06-08T08:30:30.464Z,62.67
2018-06-08T08:31:30.343Z,62.67
2018-06-08T08:32:30.585Z,62.65
2018-06-08T08:33:30.596Z,62.63
2018-06-08T08:34:30.308Z,62.62
2018-06-08T08:35:30.318Z,62.66
2018-06-08T08:36:30.468Z,62.66
2018-06-08T08:37:30.301Z,62.67
2018-06-08T08:38:30.556Z,62.63
2018-06-08T08:39:30.290Z,62.67
2018-06-08T08:40:30.512Z,62.64
2018-06-08T08:41:30.538Z,62.66
2018-06-08T08:42:30.401Z,62.61
2018-06-08T08:43:30.290Z,62.64
2018-06-08T08:44:30.348Z,62.63
2018-06-08T08:45:30.305Z,62.64
2018-06-08T08:46:30.446Z,62.58
2018-06-08T08:47:30.363Z,62.64
2018-06-08T08:48:30.341Z,62.67
2018-06-08T08:49:30.289Z,62.6
2018-06-08T08:50:30.228Z,62.71
2018-06-08T08:51:30.870Z,62.7
2018-06-08T08:52:30.426Z,62.67
2018-06-08T08:53:30.285Z,62.66
2018-06-08T08:54:30.346Z,62.64
2018-06-08T08:55:30.266Z,62.58
2018-06-08T08:56:30.541Z,62.62
2018-06-08T08:57:30.386Z,62.64
2018-06-08T08:58:30.219Z,62.6
2018-06-08T08:59:30.126Z,62.64
2018-06-08T09:00:30.220Z,62.62
2018-06-08T09:01:30.448Z,62.61
2018-06-08T09:02:30.293Z,62.66
2018-06-08T09:03:30.521Z,62.64
2018-06-08T09:04:30.309Z,62.65
2018-06-08T09:05:30.412Z,62.63
2018-06-08T09:06:30.391Z,62.63
2018-06-08T09:07:30.205Z,62.64
2018-06-08T09:08:30.237Z,62.6
2018-06-08T09:09:30.367Z,62.64
2018-06-08T09:10:30.445Z,62.62
2018-06-08T09:11:30.837Z,62.61
2018-06-08T09:12:30.292Z,62.61
2018-06-08T09:13:30.257Z,62.63
2018-06-08T09:14:30.379Z,62.61
2018-06-08T09:15:30.402Z,62.62
2018-06-08T09:16:30.418Z,62.61
2018-06-08T09:17:30.397Z,62.6
2018-06-08T09:18:30.304Z,62.64
2018-06-08T09:19:30.213Z,62.6
2018-06-08T09:20:30.445Z,62.61
2018-06-08T09:21:30.351Z,62.62
2018-06-08T09:22:30.244Z,62.58
2018-06-08T09:23:30.595Z,62.64
2018-06-08T09:24:30.290Z,62.6
2018-06-08T09:25:30.349Z,62.61
2018-06-08T09:26:30.372Z,62.59
2018-06-08T09:27:30.504Z,62.59
2018-06-08T09:28:30.247Z,62.6
2018-06-08T09:29:30.322Z,62.58
2018-06-08T09:30:30.350Z,62.56
2018-06-08T09:31:30.263Z,62.58
2018-06-08T09:32:30.275Z,62.61
2018-06-08T09:33:30.301Z,62.58
2018-06-08T09:34:30.287Z,62.55
2018-06-08T09:35:30.321Z,62.59
2018-06-08T09:36:30.220Z,62.59
2018-06-08T09:37:30.338Z,62.55
2018-06-08T09:38:30.464Z,62.61
2018-06-08T09:39:30.216Z,62.61
2018-06-08T09:40:30.324Z,62.54
2018-06-08T09:41:30.284Z,62.55
2018-06-08T09:42:30.436Z,62.59
2018-06-08T09:43:30.509Z,62.57
2018-06-08T09:44:30.914Z,62.64
2018-06-08T09:45:30.446Z,62.64
2018-06-08T09:46:30.376Z,62.59
2018-06-08T09:47:30.441Z,62.57
2018-06-08T09:48:30.234Z,62.57
2018-06-08T09:49:30.494Z,62.57
2018-06-08T09:50:30.214Z,62.6
2018-06-08T09:51:30.807Z,62.58
2018-06-08T09:52:30.518Z,62.59
2018-06-08T09:53:30.188Z,62.6
2018-06-08T09:54:30.255Z,62.59
2018-06-08T09:55:30.419Z,62.55
2018-06-08T09:56:30.281Z,62.6
2018-06-08T09:57:30.330Z,62.65
2018-06-08T09:58:30.246Z,62.63
2018-06-08T09:59:30.353Z,62.59
2018-06-08T10:00:30.251Z,62.57
2018-06-08T10:01:30.165Z,62.62
2018-06-08T10:02:30.184Z,62.59
2018-06-08T10:03:30.356Z,62.58
2018-06-08T10:04:30.414Z,62.6
2018-06-08T10:05:30.362Z,62.58
2018-06-08T10:06:30.241Z,62.57
2018-06-08T10:07:30.278Z,62.58
2018-06-08T10:08:30.476Z,62.58
2018-06-08T10:09:30.312Z,62.59
2018-06-08T10:10:30.226Z,62.58
2018-06-08T10:11:30.440Z,62.59
2018-06-08T10:12:30.415Z,62.57
2018-06-08T10:13:30.445Z,62.61
2018-06-08T10:14:30.456Z,62.61
2018-06-08T10:15:30.331Z,62.6
2018-06-08T10:16:30.419Z,62.6
2018-06-08T10:17:30.408Z,62.59
2018-06-08T10:18:30.210Z,62.61
2018-06-08T10:19:30.212Z,62.55
2018-06-08T10:20:30.320Z,62.6
2018-06-08T10:21:30.351Z,62.58
2018-06-08T10:22:30.261Z,62.61
2018-06-08T10:23:30.373Z,62.58
2018-06-08T10:24:30.451Z,62.61
2018-06-08T10:25:30.324Z,62.54
2018-06-08T10:26:30.441Z,62.56
2018-06-08T10:27:30.392Z,62.57
2018-06-08T10:28:30.217Z,62.61
2018-06-08T10:29:30.362Z,62.59
2018-06-08T10:30:30.468Z,62.57
2018-06-08T10:31:30.459Z,62.58
2018-06-08T10:32:30.236Z,62.57
2018-06-08T10:33:30.231Z,62.61
2018-06-08T10:34:30.570Z,62.53
2018-06-08T10:35:30.408Z,62.55
2018-06-08T10:36:30.217Z,62.6
2018-06-08T10:37:30.533Z,62.57
2018-06-08T10:38:30.186Z,62.59
2018-06-08T10:39:30.143Z,62.57
2018-06-08T10:40:30.424Z,62.56
2018-06-08T10:41:30.180Z,62.57
2018-06-08T10:42:30.335Z,62.54
2018-06-08T10:43:30.295Z,62.54
2018-06-08T10:44:30.383Z,62.59
2018-06-08T10:45:30.357Z,62.63
2018-06-08T10:46:30.371Z,62.58
2018-06-08T10:47:30.384Z,62.58
2018-06-08T10:48:30.231Z,62.6
2018-06-08T10:49:30.444Z,62.54
2018-06-08T10:50:30.356Z,62.59
2018-06-08T10:51:30.381Z,62.54
2018-06-08T10:52:30.418Z,62.58
2018-06-08T10:53:30.338Z,62.58
2018-06-08T10:54:30.460Z,62.61
2018-06-08T10:55:30.434Z,62.59
2018-06-08T10:56:30.311Z,62.57
2018-06-08T10:57:30.806Z,62.53
2018-06-08T10:58:30.675Z,62.56
2018-06-08T10:59:30.213Z,62.57
2018-06-08T11:00:30.302Z,62.56
2018-06-08T11:01:30.353Z,62.58
2018-06-08T11:02:30.201Z,62.61
2018-06-08T11:03:30.402Z,62.56
2018-06-08T11:04:30.409Z,62.57
2018-06-08T11:05:30.681Z,62.58
2018-06-08T11:06:30.311Z,62.61
2018-06-08T11:07:30.337Z,62.57
2018-06-08T11:08:30.278Z,62.59
2018-06-08T11:09:30.262Z,62.63
2018-06-08T11:10:30.171Z,62.56
2018-06-08T11:11:30.299Z,62.57
2018-06-08T11:12:30.283Z,62.59
2018-06-08T11:13:30.373Z,62.54
2018-06-08T11:14:30.439Z,62.58
2018-06-08T11:15:30.282Z,62.55
2018-06-08T11:16:30.281Z,62.56
2018-06-08T11:17:30.228Z,62.57
2018-06-08T11:18:30.306Z,62.51
2018-06-08T11:19:30.122Z,62.55
2018-06-08T11:20:30.272Z,62.53
2018-06-08T11:21:30.632Z,62.58
2018-06-08T11:22:30.232Z,62.58
2018-06-08T11:23:30.264Z,62.53
2018-06-08T11:24:30.284Z,62.59
2018-06-08T11:25:30.169Z,62.57
2018-06-08T11:26:30.369Z,62.56
2018-06-08T11:27:30.265Z,62.56
2018-06-08T11:28:30.234Z,62.56
2018-06-08T11:29:30.202Z,62.56
2018-06-08T11:30:30.322Z,62.59
2018-06-08T11:31:30.180Z,62.58
2018-06-08T11:32:30.284Z,62.59
2018-06-08T11:33:30.501Z,62.58
2018-06-08T11:34:30.234Z,62.58
2018-06-08T11:35:30.372Z,62.57
2018-06-08T11:36:30.483Z,62.6
2018-06-08T11:37:30.143Z,62.61
2018-06-08T11:38:30.281Z,62.65
2018-06-08T11:39:30.817Z,62.62
2018-06-08T11:40:30.469Z,62.52
2018-06-08T11:41:30.462Z,62.54
2018-06-08T11:42:30.309Z,62.55
2018-06-08T11:43:30.254Z,62.58
2018-06-08T11:44:30.205Z,62.53
2018-06-08T11:45:30.304Z,62.6
2018-06-08T11:46:30.354Z,62.56
2018-06-08T11:47:31.191Z,62.56
2018-06-08T11:48:30.259Z,62.53
2018-06-08T11:49:30.312Z,62.55
2018-06-08T11:50:30.395Z,62.61
2018-06-08T11:51:30.302Z,62.54
2018-06-08T11:52:30.402Z,62.59
2018-06-08T11:53:30.306Z,62.6
2018-06-08T11:54:30.311Z,62.51
2018-06-08T11:55:30.425Z,62.55
2018-06-08T11:56:30.310Z,62.5
2018-06-08T11:57:30.255Z,62.57
2018-06-08T11:58:30.263Z,62.58
2018-06-08T11:59:30.220Z,62.6
2018-06-08T12:00:30.295Z,62.56
2018-06-08T12:01:30.455Z,62.54
2018-06-08T12:02:30.416Z,62.48
2018-06-08T12:03:30.195Z,62.56
2018-06-08T12:04:30.426Z,62.59
2018-06-08T12:05:30.208Z,62.55
2018-06-08T12:06:30.365Z,62.59
2018-06-08T12:07:30.353Z,62.56
2018-06-08T12:08:40.232Z,62.56
2018-06-08T12:09:30.228Z,62.54
2018-06-08T12:10:30.273Z,62.51
2018-06-08T12:11:30.284Z,62.54
2018-06-08T12:12:30.203Z,62.55
2018-06-08T12:13:30.359Z,62.53
2018-06-08T12:14:30.243Z,62.54
2018-06-08T12:15:30.415Z,62.53
2018-06-08T12:16:30.353Z,62.53
2018-06-08T12:17:30.276Z,62.51
2018-06-08T12:18:30.325Z,62.56
2018-06-08T12:19:30.254Z,62.58
2018-06-08T12:20:30.362Z,62.58
2018-06-08T12:21:30.146Z,62.54
2018-06-08T12:22:30.238Z,62.56
2018-06-08T12:23:30.305Z,62.54
2018-06-08T12:24:30.356Z,62.58
2018-06-08T12:25:30.407Z,62.58
2018-06-08T12:26:30.345Z,62.57
2018-06-08T12:27:30.352Z,62.6
2018-06-08T12:28:30.175Z,62.58
2018-06-08T12:29:30.274Z,62.58
2018-06-08T12:30:30.151Z,62.57
2018-06-08T12:31:30.344Z,62.57
2018-06-08T12:32:30.668Z,62.61
2018-06-08T12:33:30.382Z,62.59
2018-06-08T12:34:30.204Z,62.55
2018-06-08T12:35:30.354Z,62.53
2018-06-08T12:36:30.333Z,62.54
2018-06-08T12:37:30.435Z,62.54
2018-06-08T12:38:30.246Z,62.56
2018-06-08T12:39:30.285Z,62.52
2018-06-08T12:40:30.329Z,62.52
2018-06-08T12:41:30.303Z,62.5
2018-06-08T12:42:30.495Z,62.54
2018-06-08T12:43:30.673Z,62.54
2018-06-08T12:44:30.149Z,62.57
2018-06-08T12:45:30.382Z,62.54
2018-06-08T12:46:30.529Z,62.53
2018-06-08T12:47:30.395Z,62.53
2018-06-08T12:48:30.314Z,62.61
2018-06-08T12:49:30.381Z,62.51
2018-06-08T12:50:30.226Z,62.53
2018-06-08T12:51:30.210Z,62.55
2018-06-08T12:52:30.475Z,62.53
2018-06-08T12:53:30.311Z,62.52
2018-06-08T12:54:30.273Z,62.51
2018-06-08T12:55:30.141Z,62.52